createdAt,value
2018-03-11T00:03:34.347Z,23.67
2018-03-11T00:06:05.694Z,24.17
2018-03-11T00:08:37.247Z,23.20
2018-03-11T00:11:08.446Z,23.73
2018-03-11T00:13:39.705Z,21.57
2018-03-11T00:16:10.881Z,21.03
2018-03-11T00:18:42.253Z,21.87
2018-03-11T00:21:13.441Z,21.37
2018-03-11T00:23:44.774Z,20.37
2018-03-11T00:26:15.965Z,19.60
2018-03-11T00:28:47.201Z,20.03
2018-03-11T00:31:18.388Z,19.87
2018-03-11T00:33:49.625Z,19.17
2018-03-11T00:36:20.859Z,18.10
2018-03-11T00:38:52.088Z,17.63
2018-03-11T00:41:23.310Z,18.80
2018-03-11T00:43:54.785Z,18.27
2018-03-11T00:46:26.017Z,17.50
2018-03-11T00:48:57.250Z,17.60
2018-03-11T00:51:28.428Z,18.43
2018-03-11T00:53:59.679Z,18.30
2018-03-11T00:56:30.882Z,17.03
2018-03-11T00:59:02.089Z,19.13
2018-03-11T01:01:33.272Z,18.47
2018-03-11T01:04:04.475Z,17.77
2018-03-11T01:06:35.692Z,18.60
2018-03-11T01:09:06.940Z,17.90
2018-03-11T01:11:38.161Z,19.00
2018-03-11T01:14:09.396Z,17.77
2018-03-11T01:16:40.591Z,17.67
2018-03-11T01:19:11.918Z,16.07
2018-03-11T01:21:43.132Z,16.73
2018-03-11T01:24:14.520Z,17.23
2018-03-11T01:26:46.036Z,16.37
2018-03-11T01:29:17.228Z,17.07
2018-03-11T01:31:48.448Z,15.57
2018-03-11T01:34:19.634Z,16.27
2018-03-11T01:36:51.627Z,16.30
2018-03-11T01:39:22.885Z,15.87
2018-03-11T01:41:54.120Z,16.43
2018-03-11T01:44:25.354Z,16.30
2018-03-11T01:46:56.569Z,17.10
2018-03-11T01:49:27.786Z,16.87
2018-03-11T01:51:58.995Z,16.57
2018-03-11T01:54:30.216Z,17.13
2018-03-11T01:57:02.196Z,16.83
2018-03-11T01:59:33.392Z,17.03
2018-03-11T02:02:05.311Z,16.67
2018-03-11T02:04:36.605Z,16.70
2018-03-11T02:07:07.844Z,18.00
2018-03-11T02:09:39.116Z,17.80
2018-03-11T02:12:10.330Z,17.00
2018-03-11T02:14:41.544Z,16.00
2018-03-11T02:17:12.744Z,17.23
2018-03-11T02:19:43.920Z,17.73
2018-03-11T02:22:15.452Z,16.40
2018-03-11T02:24:46.696Z,16.10
2018-03-11T02:27:17.959Z,16.30
2018-03-11T02:29:49.129Z,16.37
2018-03-11T02:32:20.461Z,17.03
2018-03-11T02:34:51.655Z,16.73
2018-03-11T02:37:23.947Z,16.33
2018-03-11T02:39:55.158Z,16.50
2018-03-11T02:42:26.472Z,16.30
2018-03-11T02:44:57.688Z,16.60
2018-03-11T02:47:28.875Z,17.10
2018-03-11T02:50:00.073Z,17.00
2018-03-11T02:52:31.291Z,17.37
2018-03-11T02:55:02.586Z,16.57
2018-03-11T02:57:34.019Z,16.00
2018-03-11T03:00:05.200Z,16.27
2018-03-11T03:02:36.405Z,17.87
2018-03-11T03:05:07.676Z,17.03
2018-03-11T03:07:38.864Z,16.80
2018-03-11T03:10:10.795Z,17.60
2018-03-11T03:12:42.138Z,17.23
2018-03-11T03:15:13.330Z,16.57
2018-03-11T03:17:44.555Z,17.00
2018-03-11T03:20:16.481Z,16.53
2018-03-11T03:22:48.003Z,16.47
2018-03-11T03:25:19.234Z,17.37
2018-03-11T03:27:50.467Z,15.97
2018-03-11T03:30:22.388Z,16.33
2018-03-11T03:32:53.602Z,17.00
2018-03-11T03:35:24.760Z,16.50
2018-03-11T03:37:55.989Z,17.47
2018-03-11T03:40:27.416Z,17.63
2018-03-11T03:42:58.616Z,16.43
2018-03-11T03:45:30.248Z,17.20
2018-03-11T03:48:01.464Z,16.60
2018-03-11T03:50:32.712Z,15.57
2018-03-11T03:53:03.958Z,16.23
2018-03-11T03:55:35.151Z,16.67
2018-03-11T03:58:06.361Z,16.27
2018-03-11T04:00:37.579Z,18.17
2018-03-11T04:03:08.793Z,16.37
2018-03-11T04:05:40.796Z,17.00
2018-03-11T04:08:12.018Z,16.80
2018-03-11T04:10:43.260Z,16.30
2018-03-11T04:13:15.208Z,16.33
2018-03-11T04:15:47.498Z,16.93
2018-03-11T04:18:18.686Z,17.50
2018-03-11T04:20:49.928Z,16.97
2018-03-11T04:23:21.130Z,17.80
2018-03-11T04:25:52.405Z,16.27
2018-03-11T04:28:23.608Z,17.17
2018-03-11T04:30:55.545Z,17.03
2018-03-11T04:33:26.781Z,16.77
2018-03-11T04:35:58.005Z,17.90
2018-03-11T04:38:29.254Z,17.20
2018-03-11T04:41:00.436Z,17.03
2018-03-11T04:43:32.360Z,17.17
2018-03-11T04:46:03.564Z,18.50
2018-03-11T04:48:35.129Z,17.27
2018-03-11T04:51:06.305Z,16.63
2018-03-11T04:53:37.548Z,17.63
2018-03-11T04:56:08.756Z,16.03
2018-03-11T04:58:39.959Z,17.23
2018-03-11T05:01:11.277Z,17.30
2018-03-11T05:03:42.439Z,17.50
2018-03-11T05:06:14.463Z,17.57
2018-03-11T05:08:45.664Z,17.93
2018-03-11T05:11:17.655Z,18.07
2018-03-11T05:13:48.844Z,17.33
2018-03-11T05:16:20.442Z,18.10
2018-03-11T05:18:51.586Z,16.67
2018-03-11T05:21:23.140Z,18.37
2018-03-11T05:23:55.080Z,17.63
2018-03-11T05:26:26.640Z,16.70
2018-03-11T05:28:58.539Z,18.43
2018-03-11T05:31:29.742Z,18.40
2018-03-11T05:34:00.928Z,17.80
2018-03-11T05:36:32.126Z,17.70
2018-03-11T05:39:04.140Z,17.90
2018-03-11T05:41:35.305Z,17.53
2018-03-11T05:44:07.244Z,18.50
2018-03-11T05:46:38.484Z,17.10
2018-03-11T05:49:09.686Z,17.83
2018-03-11T05:51:41.243Z,17.03
2018-03-11T05:54:12.430Z,17.67
2018-03-11T05:56:43.625Z,18.13
2018-03-11T05:59:14.821Z,18.70
2018-03-11T06:01:46.162Z,18.33
2018-03-11T06:04:17.365Z,19.73
2018-03-11T06:06:48.602Z,19.50
2018-03-11T06:09:19.781Z,19.00
2018-03-11T06:11:50.975Z,17.77
2018-03-11T06:14:22.929Z,19.37
2018-03-11T06:16:54.892Z,20.53
2018-03-11T06:19:26.365Z,20.50
2018-03-11T06:21:57.560Z,19.63
2018-03-11T06:24:28.868Z,19.50
2018-03-11T06:27:00.076Z,19.53
2018-03-11T06:29:32.005Z,18.43
2018-03-11T06:32:03.201Z,19.13
2018-03-11T06:34:34.411Z,19.57
2018-03-11T06:37:06.351Z,18.20
2018-03-11T06:39:37.589Z,18.83
2018-03-11T06:42:08.764Z,18.57
2018-03-11T06:44:40.726Z,20.07
2018-03-11T06:47:12.005Z,19.23
2018-03-11T06:49:43.652Z,20.33
2018-03-11T06:52:14.875Z,19.80
2018-03-11T06:54:46.068Z,20.23
2018-03-11T06:57:17.309Z,20.10
2018-03-11T06:59:48.477Z,19.20
2018-03-11T07:02:19.701Z,20.50
2018-03-11T07:04:50.885Z,20.90
2018-03-11T07:07:22.054Z,22.47
2018-03-11T07:09:53.273Z,22.90
2018-03-11T07:12:25.277Z,20.00
2018-03-11T07:14:56.821Z,20.73
2018-03-11T07:17:28.027Z,22.53
2018-03-11T07:20:00.070Z,22.20
2018-03-11T07:22:31.278Z,22.50
2018-03-11T07:25:02.520Z,22.33
2018-03-11T07:27:33.802Z,22.70
2018-03-11T07:30:05.047Z,22.83
2018-03-11T07:32:36.435Z,22.17
2018-03-11T07:35:07.659Z,23.07
2018-03-11T07:37:38.910Z,24.00
2018-03-11T07:40:10.900Z,23.23
2018-03-11T07:42:42.097Z,23.23
2018-03-11T07:45:13.343Z,21.60
2018-03-11T07:47:46.097Z,23.00
2018-03-11T07:50:17.392Z,22.80
2018-03-11T07:52:49.312Z,23.60
2018-03-11T07:55:20.523Z,24.00
2018-03-11T07:57:51.781Z,23.30
2018-03-11T08:00:22.960Z,22.63
2018-03-11T08:02:54.152Z,23.30
2018-03-11T08:05:25.494Z,23.43
2018-03-11T08:07:56.729Z,23.93
2018-03-11T08:10:27.951Z,24.33
2018-03-11T08:12:59.886Z,22.83
2018-03-11T08:15:31.149Z,22.93
2018-03-11T08:18:02.371Z,22.97
2018-03-11T08:20:33.538Z,21.53
2018-03-11T08:23:04.743Z,23.40
2018-03-11T08:25:37.449Z,22.87
2018-03-11T08:28:10.223Z,22.50
2018-03-11T08:30:41.453Z,23.03
2018-03-11T08:33:12.709Z,22.93
2018-03-11T08:35:43.885Z,22.83
2018-03-11T08:38:15.476Z,22.33
2018-03-11T08:40:46.680Z,20.93
2018-03-11T08:43:18.729Z,20.57
2018-03-11T08:45:50.669Z,21.37
2018-03-11T08:48:23.226Z,21.20
2018-03-11T08:50:54.474Z,21.53
2018-03-11T08:53:25.769Z,22.37
2018-03-11T08:55:56.980Z,20.60
2018-03-11T08:58:28.508Z,22.37
2018-03-11T09:00:59.721Z,21.87
2018-03-11T09:03:31.664Z,22.53
2018-03-11T09:06:03.597Z,23.87
2018-03-11T09:08:34.818Z,22.83
2018-03-11T09:11:05.986Z,22.87
2018-03-11T09:13:37.309Z,20.33
2018-03-11T09:16:08.842Z,21.70
2018-03-11T09:18:40.015Z,20.33
2018-03-11T09:21:11.250Z,21.13
2018-03-11T09:23:42.497Z,22.77
2018-03-11T09:26:13.660Z,21.10
2018-03-11T09:28:46.428Z,20.77
2018-03-11T09:31:17.589Z,23.00
2018-03-11T09:33:48.846Z,20.40
2018-03-11T09:36:20.760Z,21.43
2018-03-11T09:38:52.016Z,20.30
2018-03-11T09:41:23.214Z,20.53
2018-03-11T09:43:54.425Z,21.23
2018-03-11T09:46:25.601Z,22.40
2018-03-11T09:48:56.933Z,24.37
2018-03-11T09:51:28.866Z,24.20
2018-03-11T09:54:00.152Z,21.50
2018-03-11T09:56:32.105Z,20.07
2018-03-11T09:59:03.342Z,18.27
2018-03-11T10:01:35.335Z,18.50
2018-03-11T10:04:06.887Z,18.90
2018-03-11T10:06:38.062Z,18.33
2018-03-11T10:09:10.929Z,18.13
2018-03-11T10:11:42.225Z,19.93
2018-03-11T10:14:14.245Z,18.40
2018-03-11T10:16:45.467Z,17.60
2018-03-11T10:19:16.736Z,16.47
2018-03-11T10:21:47.917Z,16.50
2018-03-11T10:24:19.311Z,17.03
2018-03-11T10:26:50.516Z,15.47
2018-03-11T10:29:22.005Z,15.53
2018-03-11T10:31:53.206Z,16.30
2018-03-11T10:34:25.197Z,13.67
2018-03-11T10:36:56.473Z,13.87
2018-03-11T10:39:27.728Z,14.30
2018-03-11T10:41:58.900Z,13.57
2018-03-11T10:44:30.115Z,13.90
2018-03-11T10:47:01.290Z,14.43
2018-03-11T10:49:33.314Z,14.60
2018-03-11T10:52:04.521Z,13.67
2018-03-11T10:54:35.838Z,13.90
2018-03-11T10:57:22.734Z,14.20
2018-03-11T10:59:53.919Z,13.00
2018-03-11T11:02:27.020Z,13.80
2018-03-11T11:04:59.212Z,13.23
2018-03-11T11:07:30.409Z,13.47
2018-03-11T11:10:02.477Z,13.07
2018-03-11T11:12:33.708Z,13.67
2018-03-11T11:15:05.689Z,13.93
2018-03-11T11:17:36.871Z,14.10
2018-03-11T11:20:08.128Z,14.13
2018-03-11T11:22:39.306Z,14.27
2018-03-11T11:25:10.590Z,13.70
2018-03-11T11:27:41.780Z,13.00
2018-03-11T11:30:13.793Z,12.07
2018-03-11T11:32:45.045Z,10.77
2018-03-11T11:35:16.273Z,12.10
2018-03-11T11:37:47.830Z,10.57
2018-03-11T11:40:19.022Z,11.70
2018-03-11T11:42:50.406Z,13.00
2018-03-11T11:45:21.622Z,13.13
2018-03-11T11:47:53.649Z,12.83
2018-03-11T11:50:25.094Z,12.30
2018-03-11T11:52:56.388Z,11.30
2018-03-11T11:55:28.326Z,11.13
2018-03-11T11:58:00.399Z,11.73
2018-03-11T12:00:32.372Z,11.70
2018-03-11T12:03:04.375Z,12.10
2018-03-11T12:05:35.622Z,12.13
2018-03-11T12:08:06.870Z,13.87
2018-03-11T12:10:38.285Z,13.43
2018-03-11T12:13:10.194Z,13.27
2018-03-11T12:15:41.854Z,12.90
2018-03-11T12:18:13.072Z,12.80
2018-03-11T12:20:44.606Z,13.83
2018-03-11T12:23:15.833Z,13.37
2018-03-11T12:25:47.914Z,13.37
2018-03-11T12:28:19.175Z,12.70
2018-03-11T12:30:50.454Z,11.27
2018-03-11T12:33:21.669Z,12.47
2018-03-11T12:35:52.902Z,12.27
2018-03-11T12:38:24.130Z,12.73
2018-03-11T12:40:55.372Z,13.43
2018-03-11T12:43:26.663Z,12.27
2018-03-11T12:45:57.942Z,15.40
2018-03-11T12:48:30.149Z,17.07
2018-03-11T12:51:01.800Z,18.20
2018-03-11T12:53:33.033Z,14.53
2018-03-11T12:56:04.248Z,14.30
2018-03-11T12:58:36.209Z,13.50
2018-03-11T13:01:07.479Z,13.57
2018-03-11T13:03:38.697Z,12.97
2018-03-11T13:06:10.682Z,11.93
2018-03-11T13:08:41.954Z,10.60
2018-03-11T13:11:13.485Z,11.60
2018-03-11T13:13:44.899Z,12.30
2018-03-11T13:16:16.330Z,11.97
2018-03-11T13:18:48.362Z,12.97
2018-03-11T13:21:19.612Z,13.13
2018-03-11T13:23:50.844Z,13.50
2018-03-11T13:26:22.073Z,12.97
2018-03-11T13:28:53.280Z,13.17
2018-03-11T13:31:24.565Z,12.43
2018-03-11T13:34:08.260Z,11.27
2018-03-11T13:36:39.584Z,12.47
2018-03-11T13:39:23.089Z,12.43
2018-03-11T13:41:54.385Z,13.03
2018-03-11T13:44:25.644Z,11.20
2018-03-11T13:47:13.804Z,12.60
2018-03-11T13:49:45.009Z,11.37
2018-03-11T13:52:30.221Z,15.27
2018-03-11T13:55:01.418Z,9.93
2018-03-11T14:00:46.657Z,10.00
2018-03-11T14:03:17.908Z,9.07
2018-03-11T14:05:49.145Z,8.00
2018-03-11T14:08:20.712Z,8.30
2018-03-11T14:10:52.093Z,9.20
2018-03-11T14:13:23.423Z,9.07
2018-03-11T14:15:54.646Z,8.50
2018-03-11T14:18:25.829Z,16.77
2018-03-11T14:20:57.111Z,16.80
2018-03-11T14:23:29.106Z,15.83
2018-03-11T14:26:00.593Z,9.93
2018-03-11T14:28:31.856Z,10.47
2018-03-11T14:31:03.854Z,9.17
2018-03-11T14:33:35.062Z,8.07
2018-03-11T14:36:07.055Z,9.60
2018-03-11T14:38:38.277Z,12.67
2018-03-11T14:41:10.297Z,15.50
2018-03-11T14:43:41.509Z,15.60
2018-03-11T14:46:12.828Z,15.73
2018-03-11T14:48:44.071Z,10.67
2018-03-11T14:51:15.311Z,8.30
2018-03-11T14:53:47.305Z,8.47
2018-03-11T14:56:18.513Z,7.80
2018-03-11T14:58:49.755Z,7.97
2018-03-11T15:01:21.063Z,7.60
2018-03-11T15:03:52.299Z,8.17
2018-03-11T15:06:23.621Z,8.47
2018-03-11T15:08:55.624Z,9.13
2018-03-11T15:11:26.854Z,7.50
2018-03-11T15:13:58.059Z,7.63
2018-03-11T15:16:30.039Z,7.97
2018-03-11T15:19:02.099Z,7.97
2018-03-11T15:21:33.359Z,7.17
2018-03-11T15:24:04.589Z,9.50
2018-03-11T15:26:37.083Z,10.40
2018-03-11T15:29:08.378Z,10.17
2018-03-11T15:31:40.364Z,11.47
2018-03-11T15:34:12.492Z,11.00
2018-03-11T15:36:43.777Z,10.87
2018-03-11T15:39:15.054Z,11.37
2018-03-11T15:41:46.290Z,8.60
2018-03-11T15:44:17.557Z,10.30
2018-03-11T15:46:48.760Z,9.23
2018-03-11T15:49:20.055Z,10.93
2018-03-11T15:51:51.274Z,10.07
2018-03-11T15:54:22.559Z,11.10
2018-03-11T15:56:54.515Z,13.23
2018-03-11T15:59:26.538Z,12.13
2018-03-11T16:01:57.794Z,12.03
2018-03-11T16:04:29.042Z,9.90
2018-03-11T16:07:00.286Z,10.03
2018-03-11T16:09:31.523Z,10.40
2018-03-11T16:12:02.776Z,10.93
2018-03-11T16:14:33.962Z,10.60
2018-03-11T16:17:05.193Z,9.40
2018-03-11T16:19:37.109Z,10.20
2018-03-11T16:22:08.417Z,9.17
2018-03-11T16:24:39.896Z,14.27
2018-03-11T16:27:11.607Z,11.53
2018-03-11T16:29:43.523Z,9.33
2018-03-11T16:32:14.744Z,9.60
2018-03-11T16:34:45.975Z,9.20
2018-03-11T16:37:17.228Z,9.87
2018-03-11T16:39:48.426Z,9.53
2018-03-11T16:42:19.757Z,9.87
2018-03-11T16:44:50.998Z,10.20
2018-03-11T16:47:22.181Z,10.67
2018-03-11T16:49:53.427Z,10.23
2018-03-11T16:52:25.391Z,9.00
2018-03-11T16:54:57.346Z,9.00
2018-03-11T16:57:28.643Z,10.17
2018-03-11T16:59:59.935Z,10.13
2018-03-11T17:02:31.285Z,9.40
2018-03-11T17:05:03.893Z,8.70
2018-03-11T17:07:35.416Z,9.60
2018-03-11T17:10:07.434Z,9.83
2018-03-11T17:12:39.355Z,10.57
2018-03-11T17:15:10.620Z,10.47
2018-03-11T17:17:41.812Z,11.10
2018-03-11T17:20:13.043Z,11.47
2018-03-11T17:22:44.299Z,11.60
2018-03-11T17:25:15.656Z,11.60
2018-03-11T17:27:47.872Z,11.30
2018-03-11T17:30:19.096Z,10.90
2018-03-11T17:32:50.706Z,9.60
2018-03-11T17:35:21.865Z,10.33
2018-03-11T17:37:53.870Z,11.77
2018-03-11T17:40:25.071Z,10.20
2018-03-11T17:42:57.275Z,11.30
2018-03-11T17:45:28.436Z,10.97
2018-03-11T17:47:59.666Z,10.33
2018-03-11T17:50:30.921Z,9.80
2018-03-11T17:53:02.969Z,10.77
2018-03-11T17:55:34.180Z,10.60
2018-03-11T17:58:06.121Z,11.33
2018-03-11T18:00:37.360Z,11.33
2018-03-11T18:03:08.710Z,11.50
2018-03-11T18:05:39.924Z,12.90
2018-03-11T18:08:11.167Z,13.00
2018-03-11T18:10:43.126Z,13.33
2018-03-11T18:13:14.363Z,12.50
2018-03-11T18:15:45.676Z,14.13
2018-03-11T18:18:17.641Z,14.00
2018-03-11T18:20:49.638Z,13.07
2018-03-11T18:23:21.028Z,13.10
2018-03-11T18:25:52.210Z,13.90
2018-03-11T18:28:23.479Z,14.53
2018-03-11T18:30:54.687Z,14.13
2018-03-11T18:33:26.628Z,14.33
2018-03-11T18:35:58.572Z,14.93
2018-03-11T18:38:29.809Z,14.87
2018-03-11T18:41:01.068Z,12.03
2018-03-11T18:43:32.712Z,13.80
2018-03-11T18:46:03.917Z,12.93
2018-03-11T18:48:35.180Z,12.47
2018-03-11T18:51:06.377Z,12.10
2018-03-11T18:53:38.355Z,12.97
2018-03-11T18:56:09.572Z,11.83
2018-03-11T18:58:41.509Z,13.67
2018-03-11T19:01:12.753Z,12.50
2018-03-11T19:03:43.992Z,12.80
2018-03-11T19:06:15.237Z,12.43
2018-03-11T19:08:46.472Z,11.43
2018-03-11T19:11:17.705Z,13.13
2018-03-11T19:13:48.950Z,12.33
2018-03-11T19:16:20.157Z,12.83
2018-03-11T19:18:51.732Z,12.67
2018-03-11T19:21:22.947Z,12.80
2018-03-11T19:23:55.036Z,13.63
2018-03-11T19:26:26.237Z,12.87
2018-03-11T19:28:57.589Z,12.40
2018-03-11T19:31:29.544Z,12.60
2018-03-11T19:34:01.132Z,12.70
2018-03-11T19:36:32.340Z,13.03
2018-03-11T19:39:03.574Z,12.90
2018-03-11T19:41:35.523Z,15.10
2018-03-11T19:44:08.025Z,15.33
2018-03-11T19:46:39.230Z,14.87
2018-03-11T19:49:10.468Z,14.03
2018-03-11T19:51:41.653Z,14.17
2018-03-11T19:54:13.652Z,13.80
2018-03-11T19:56:44.930Z,14.20
2018-03-11T19:59:16.102Z,13.47
2018-03-11T20:01:47.416Z,14.43
2018-03-11T20:04:18.655Z,13.97
2018-03-11T20:06:49.898Z,13.40
2018-03-11T20:09:21.239Z,14.30
2018-03-11T20:11:52.456Z,13.20
2018-03-11T20:14:23.666Z,13.80
2018-03-11T20:16:55.158Z,13.60
2018-03-11T20:19:26.344Z,16.20
2018-03-11T20:22:00.389Z,15.80
2018-03-11T20:24:32.382Z,18.37
2018-03-11T20:27:03.600Z,15.00
2018-03-11T20:29:34.919Z,14.40
2018-03-11T20:32:06.157Z,15.37
2018-03-11T20:34:37.387Z,14.20
2018-03-11T20:37:08.596Z,14.00
2018-03-11T20:39:39.806Z,14.43
2018-03-11T20:42:11.041Z,15.13
2018-03-11T20:44:42.402Z,14.30
2018-03-11T20:47:14.339Z,15.63
2018-03-11T20:49:45.857Z,15.63
2018-03-11T20:52:17.083Z,14.83
2018-03-11T20:54:48.667Z,15.13
2018-03-11T20:57:19.820Z,15.27
2018-03-11T20:59:51.050Z,14.90
2018-03-11T21:02:22.240Z,15.17
2018-03-11T21:04:54.247Z,14.53
2018-03-11T21:07:25.461Z,14.37
2018-03-11T21:09:57.740Z,14.93
2018-03-11T21:12:29.013Z,14.13
2018-03-11T21:15:00.245Z,13.80
2018-03-11T21:17:31.464Z,14.43
2018-03-11T21:20:03.048Z,14.37
2018-03-11T21:22:34.285Z,13.97
2018-03-11T21:25:05.567Z,14.93
2018-03-11T21:27:36.748Z,15.33
2018-03-11T21:30:08.711Z,13.03
2018-03-11T21:32:39.893Z,13.80
2018-03-11T21:35:11.414Z,14.30
2018-03-11T21:37:42.602Z,13.93
2018-03-11T21:40:13.841Z,14.67
2018-03-11T21:42:45.078Z,14.03
2018-03-11T21:45:16.317Z,14.40
2018-03-11T21:47:47.561Z,15.27
2018-03-11T21:50:18.812Z,15.30
2018-03-11T21:52:50.037Z,14.50
2018-03-11T21:55:21.206Z,14.57
2018-03-11T21:57:52.713Z,15.77
2018-03-11T22:00:23.893Z,14.83
2018-03-11T22:02:55.134Z,14.40
2018-03-11T22:05:26.403Z,14.87
2018-03-11T22:07:57.803Z,15.17
2018-03-11T22:10:28.996Z,14.83
2018-03-11T22:13:00.259Z,14.73
2018-03-11T22:15:32.255Z,14.60
2018-03-11T22:18:03.459Z,14.60
2018-03-11T22:20:35.416Z,14.87
2018-03-11T22:23:07.419Z,14.40
2018-03-11T22:25:38.700Z,15.73
2018-03-11T22:28:09.930Z,14.80
2018-03-11T22:30:41.169Z,14.37
2018-03-11T22:33:12.416Z,15.40
2018-03-11T22:35:43.619Z,14.70
2018-03-11T22:38:15.549Z,14.67
2018-03-11T22:40:46.780Z,14.33
2018-03-11T22:43:18.189Z,15.80
2018-03-11T22:45:49.477Z,15.37
2018-03-11T22:48:20.682Z,15.00
2018-03-11T22:50:51.874Z,14.73
2018-03-11T22:53:23.860Z,15.97
2018-03-11T22:55:55.776Z,15.53
2018-03-11T22:58:27.207Z,15.20
2018-03-11T23:00:58.401Z,15.20
2018-03-11T23:03:29.697Z,16.20
2018-03-11T23:06:00.894Z,15.73
2018-03-11T23:08:32.886Z,15.60
2018-03-11T23:11:04.187Z,16.60
2018-03-11T23:13:35.440Z,17.13
2018-03-11T23:16:07.439Z,16.87
2018-03-11T23:18:50.997Z,16.30
2018-03-11T23:21:22.187Z,16.50
2018-03-11T23:23:54.227Z,17.60
2018-03-11T23:26:25.560Z,16.80
2018-03-11T23:28:57.061Z,17.67
2018-03-11T23:31:28.252Z,17.80
2018-03-11T23:33:59.772Z,18.17
2018-03-11T23:36:31.011Z,17.50
2018-03-11T23:39:02.192Z,17.60
2018-03-11T23:41:33.574Z,17.57
2018-03-11T23:44:04.813Z,17.53
2018-03-11T23:46:36.820Z,18.13
2018-03-11T23:49:08.003Z,18.47
2018-03-11T23:51:39.409Z,18.00
2018-03-11T23:54:10.599Z,18.23
2018-03-11T23:56:42.225Z,18.30
2018-03-11T23:59:13.390Z,18.07
